首页
METAR-TAF:

METAR-TAF

机场 :

古达机场

古達, 马来西亚

纬度: 06-55N, 经度: 116-50E, 海拔: 3米

当前天气观测

该预报发布于50分钟前的17:00 UTC
静风
温度 28°C
湿度 84%
气压 1011 hPa
能见度10公里或以上
少量云层高于1400英尺
散云层高于14000英尺
多云层高于27000英尺

METAR: WBKT 121700Z 00000KT 9999 FEW014 SCT140 BKN270 28/25 Q1011

时间: 01:50 (17:50 UTC)


TAF: 丢失

超过4000个机场的气象观测和天气预报(METAR&TAF报告)。

可查询的气象台以黄色和红色小点在地图上表示。

将鼠标移到小点上方,可查看气象台名称。

然后点击查看天气观测和预报。

如需切换地图:点击带黑十字的绿色按钮放大地图;点击带横线的绿色按钮缩小地图;或者点击绿色箭头查看邻近地区的地图。


METAR-TAF: